Time;durP1;ratioP1;P1;durP2;ratioP2;P2;SDS_P1;SDS_P2;PMS_P1;PMS_P2;Temp;Humidity;BMP_temperature;BMP_pressure;BME280_temperature;BME280_humidity;BME280_pressure;Samples;Min_cycle;Max_cycle;Signal;HPM_P1;HPM_P2
2022/05/11 00:00:43;;;;;;;;;;;;;;;21.05;49.57;101082.20;1736322;82;22223;-79
2022/05/11 00:03:10;;;;;;;5.10;4.58;;;;;;;21.03;49.56;101075.59;1745327;80;20200;-79
2022/05/11 00:05:36;;;;;;;5.53;4.58;;;;;;;21.02;49.55;101078.10;1736799;81;21657;-79
2022/05/11 00:08:03;;;;;;;5.95;5.25;;;;;;;21.02;49.53;101080.05;1736971;81;21029;-79
2022/05/11 00:10:30;;;;;;;6.58;5.08;;;;;;;21.02;49.53;101071.19;1736820;82;21013;-79
2022/05/11 00:12:57;;;;;;;8.58;5.40;;;;;;;21.02;49.53;101081.43;1736944;82;21040;-79
2022/05/11 00:15:24;;;;;;;6.92;4.85;;;;;;;21.02;49.50;101076.72;1736765;81;21044;-79
2022/05/11 00:17:50;;;;;;;6.05;4.72;;;;;;;21.02;49.47;101082.25;1737004;82;21127;-79
2022/05/11 00:20:16;;;;;;;5.75;4.70;;;;;;;21.02;49.46;101082.81;1736742;82;21429;-79
2022/05/11 00:22:42;;;;;;;6.95;5.15;;;;;;;21.01;49.47;101081.99;1715609;82;21116;-79
2022/05/11 00:25:11;;;;;;;8.68;4.92;;;;;;;21.02;49.46;101076.72;1737008;81;21107;-79
2022/05/11 00:27:37;;;;;;;6.30;4.90;;;;;;;21.03;49.42;101070.63;1736967;82;21013;-79
2022/05/11 00:30:06;;;;;;;7.08;5.35;;;;;;;21.02;49.42;101068.98;1739838;81;21575;-79
2022/05/11 00:32:33;;;;;;;5.97;4.87;;;;;;;21.02;49.44;101076.72;1734693;81;21049;-79
2022/05/11 00:34:59;;;;;;;5.42;4.70;;;;;;;21.02;49.40;101075.89;1734632;82;20988;-79
2022/05/11 00:37:31;;;;;;;6.60;5.17;;;;;;;21.01;49.38;101069.55;1734286;82;21034;-79
2022/05/11 00:39:58;;;;;;;6.53;4.65;;;;;;;21.02;49.35;101065.66;1734610;81;21068;-80
2022/05/11 00:42:24;;;;;;;6.55;4.72;;;;;;;21.01;49.35;101062.62;1734866;82;20977;-80
2022/05/11 00:44:50;;;;;;;6.37;4.70;;;;;;;21.01;49.33;101057.09;1734452;82;21310;-80
2022/05/11 00:47:40;;;;;;;6.30;5.00;;;;;;;21.01;49.32;101060.42;1734667;81;21047;-80
2022/05/11 00:50:25;;;;;;;5.12;4.05;;;;;;;21.01;49.32;101052.95;1700987;81;21304;-80
2022/05/11 00:52:55;;;;;;;6.92;4.80;;;;;;;21.02;49.26;101054.59;1713191;82;21074;-80
2022/05/11 00:55:35;;;;;;;7.17;4.95;;;;;;;21.01;49.27;101048.80;1710288;83;21203;-80
2022/05/11 00:58:18;;;;;;;5.75;4.72;;;;;;;21.00;49.25;101041.66;1738281;81;21032;-78
2022/05/11 01:00:45;;;;;;;7.28;4.90;;;;;;;20.99;49.25;101051.08;1735364;82;21026;-80
2022/05/11 01:03:18;;;;;;;5.22;4.35;;;;;;;20.98;49.21;101048.88;1742026;81;21162;-80
2022/05/11 01:05:44;;;;;;;6.15;4.67;;;;;;;20.99;49.19;101048.31;1742101;82;21478;-80
2022/05/11 01:08:10;;;;;;;6.53;4.92;;;;;;;21.00;49.20;101051.89;1742053;82;22049;-80
2022/05/11 01:10:37;;;;;;;7.92;4.92;;;;;;;21.00;49.19;101047.75;1741485;82;21019;-78
2022/05/11 01:13:07;;;;;;;6.45;4.95;;;;;;;20.98;49.17;101043.34;1741698;82;21676;-80
2022/05/11 01:15:33;;;;;;;6.05;4.78;;;;;;;20.99;49.16;101041.39;1741472;81;21016;-80
2022/05/11 01:18:02;;;;;;;6.03;4.70;;;;;;;20.98;49.15;101044.72;1741732;82;21570;-80
2022/05/11 01:20:30;;;;;;;6.45;4.60;;;;;;;20.99;49.14;101040.02;1741453;82;21513;-80
2022/05/11 01:23:33;;;;;;;6.28;5.08;;;;;;;20.98;49.14;101039.19;1741455;82;21060;-79
2022/05/11 01:26:00;;;;;;;7.45;4.70;;;;;;;20.98;49.13;101038.38;1727146;82;21608;-80
2022/05/11 01:28:27;;;;;;;7.22;4.35;;;;;;;20.98;49.08;101040.58;1740864;82;21079;-79
2022/05/11 01:31:03;;;;;;;5.90;4.47;;;;;;;20.97;49.07;101043.08;1740739;82;21584;-80
2022/05/11 01:33:37;;;;;;;6.33;4.75;;;;;;;20.99;49.08;101045.55;1743467;82;21944;-80
2022/05/11 01:36:30;;;;;;;4.67;4.20;;;;;;;20.97;49.04;101048.61;1747219;81;21620;-80
2022/05/11 01:39:03;;;;;;;6.83;4.20;;;;;;;20.96;49.02;101049.73;1742915;82;20973;-80
2022/05/11 01:41:41;;;;;;;6.67;5.08;;;;;;;20.97;49.00;101058.30;1743645;82;21645;-80
2022/05/11 01:44:12;;;;;;;5.70;4.20;;;;;;;20.97;48.99;101058.30;1743487;82;21075;-80
2022/05/11 01:46:38;;;;;;;5.28;3.98;;;;;;;20.96;48.97;101058.62;1743874;82;21142;-80
2022/05/11 01:49:05;;;;;;;5.87;4.50;;;;;;;20.97;48.96;101061.06;1743841;80;21000;-80
2022/05/11 01:51:31;;;;;;;5.55;4.45;;;;;;;20.96;48.95;101062.78;1736825;81;21036;-80
2022/05/11 01:53:57;;;;;;;5.85;4.80;;;;;;;20.96;48.96;101060.02;1737479;81;21612;-80
2022/05/11 01:56:24;;;;;;;5.85;4.53;;;;;;;20.97;48.94;101063.00;1737467;82;20969;-80
2022/05/11 01:58:51;;;;;;;6.47;5.00;;;;;;;20.95;48.93;101061.95;1737109;81;21060;-80
2022/05/11 02:01:19;;;;;;;6.62;4.47;;;;;;;20.96;48.93;101063.56;1737136;81;20970;-80
2022/05/11 02:03:46;;;;;;;7.05;4.22;;;;;;;20.96;48.90;101057.25;1737404;82;21069;-80
2022/05/11 02:08:57;;;;;;;6.37;4.37;;;;;;;20.96;48.86;101066.92;1737680;81;21630;-80
2022/05/11 02:11:24;;;;;;;6.62;4.20;;;;;;;20.96;48.84;101066.92;1736954;81;21155;-80
2022/05/11 02:13:50;;;;;;;6.28;4.67;;;;;;;20.95;48.82;101064.72;1737522;81;21084;-80
2022/05/11 02:16:16;;;;;;;6.83;4.87;;;;;;;20.95;48.83;101064.72;1737185;81;21072;-80
2022/05/11 02:18:43;;;;;;;7.53;4.90;;;;;;;20.95;48.80;101060.57;1716250;82;21056;-80
2022/05/11 02:21:09;;;;;;;6.28;4.85;;;;;;;20.96;48.77;101066.92;1737315;81;21040;-80
2022/05/11 02:23:36;;;;;;;5.60;4.10;;;;;;;20.96;48.76;101062.78;1737492;81;21244;-80
2022/05/11 02:26:03;;;;;;;6.20;4.40;;;;;;;20.95;48.75;101061.95;1737305;82;20976;-79
2022/05/11 02:28:29;;;;;;;5.70;4.00;;;;;;;20.96;48.74;101062.78;1737664;81;21021;-80
2022/05/11 02:30:57;;;;;;;6.42;4.17;;;;;;;20.96;48.73;101065.55;1737129;82;21624;-80
2022/05/11 02:33:24;;;;;;;6.08;4.53;;;;;;;20.95;48.73;101063.91;1737084;82;21097;-80
2022/05/11 02:35:50;;;;;;;6.20;4.15;;;;;;;20.95;48.70;101065.28;1737469;82;21985;-79
2022/05/11 02:38:20;;;;;;;6.53;4.50;;;;;;;20.96;48.70;101064.16;1737423;81;21061;-80
2022/05/11 02:40:47;;;;;;;5.95;4.22;;;;;;;20.94;48.68;101059.49;1737224;82;20978;-80
2022/05/11 02:43:15;;;;;;;5.42;4.30;;;;;;;20.94;48.66;101057.55;1737512;82;21096;-80
2022/05/11 02:45:42;;;;;;;7.22;4.12;;;;;;;20.94;48.66;101060.31;1737497;82;21005;-79
2022/05/11 02:48:10;;;;;;;7.28;4.15;;;;;;;20.94;48.64;101063.08;1737230;81;21239;-80
2022/05/11 02:50:41;;;;;;;5.15;4.20;;;;;;;20.94;48.63;101060.31;1722000;82;21551;-80
2022/05/11 02:53:08;;;;;;;5.62;4.30;;;;;;;20.94;48.61;101061.70;1699562;83;21032;-79
2022/05/11 02:55:37;;;;;;;6.35;4.65;;;;;;;20.94;48.58;101056.73;1721868;83;21090;-80
2022/05/11 02:58:10;;;;;;;6.25;4.37;;;;;;;20.93;48.60;101055.91;1721975;82;21447;-80
2022/05/11 03:00:37;;;;;;;6.65;4.33;;;;;;;20.94;48.56;101053.96;1720857;82;21354;-79
2022/05/11 03:03:04;;;;;;;6.08;4.35;;;;;;;20.94;48.55;101052.58;1715394;83;21112;-80
2022/05/11 03:05:31;;;;;;;5.17;4.25;;;;;;;20.93;48.53;101053.70;1715728;82;21072;-79
2022/05/11 03:07:57;;;;;;;5.37;4.03;;;;;;;20.92;48.54;101052.88;1780788;80;21075;-79
2022/05/11 03:10:23;;;;;;;5.72;4.25;;;;;;;20.93;48.53;101057.85;1780797;79;21557;-78
2022/05/11 03:12:49;;;;;;;6.83;4.67;;;;;;;20.92;48.51;101057.03;1780449;80;21212;-79
2022/05/11 03:15:16;;;;;;;7.50;4.40;;;;;;;20.93;48.49;101053.70;1771645;79;21038;-80
2022/05/11 03:17:42;;;;;;;6.00;4.47;;;;;;;20.92;48.48;101052.88;1781542;80;21058;-80
2022/05/11 03:20:09;;;;;;;6.35;4.30;;;;;;;20.93;48.47;101055.09;1781620;80;21100;-80
2022/05/11 03:22:35;;;;;;;5.87;4.58;;;;;;;20.92;48.46;101052.06;1781413;79;21028;-80
2022/05/11 03:25:02;;;;;;;6.67;4.50;;;;;;;20.92;48.43;101055.64;1781828;80;22028;-78
2022/05/11 03:27:28;;;;;;;5.47;4.25;;;;;;;20.93;48.42;101056.47;1781761;80;21031;-80
2022/05/11 03:29:54;;;;;;;6.75;4.10;;;;;;;20.92;48.41;101055.64;1781173;80;21035;-80
2022/05/11 03:35:06;;;;;;;6.45;4.30;;;;;;;20.92;48.38;101058.41;1767003;81;21000;-80
2022/05/11 03:37:33;;;;;;;6.10;4.60;;;;;;;20.92;48.35;101058.41;1713313;83;21190;-80
2022/05/11 03:40:00;;;;;;;5.85;4.30;;;;;;;20.92;48.34;101065.33;1713561;83;21123;-78
2022/05/11 03:42:30;;;;;;;7.17;4.50;;;;;;;20.91;48.33;101059.56;1701993;83;21115;-80
2022/05/11 03:44:56;;;;;;;6.03;4.60;;;;;;;20.92;48.33;101065.89;1679218;83;21067;-80
2022/05/11 03:47:22;;;;;;;5.08;4.25;;;;;;;20.92;48.30;101073.63;1724612;82;21080;-80
2022/05/11 03:49:48;;;;;;;6.25;4.40;;;;;;;20.92;48.29;101072.80;1689614;83;21061;-79
2022/05/11 03:52:16;;;;;;;5.60;4.20;;;;;;;20.90;48.29;101071.75;1687059;83;21114;-80
2022/05/11 03:54:42;;;;;;;7.15;4.30;;;;;;;20.90;48.29;101073.14;1685456;85;21087;-79
2022/05/11 03:57:08;;;;;;;5.15;3.95;;;;;;;20.90;48.30;101078.67;1685222;84;21097;-80
2022/05/11 03:59:34;;;;;;;6.05;4.30;;;;;;;20.90;48.31;101082.00;1685359;85;21044;-80
2022/05/11 04:02:00;;;;;;;6.47;4.70;;;;;;;20.91;48.30;101080.31;1685101;84;21606;-80
2022/05/11 04:04:26;;;;;;;7.47;4.50;;;;;;;20.91;48.30;101086.41;1685047;84;21092;-80
2022/05/11 04:06:53;;;;;;;7.12;4.53;;;;;;;20.90;48.27;101092.50;1685247;85;21036;-80
2022/05/11 04:09:25;;;;;;;6.35;4.67;;;;;;;20.90;48.23;101098.59;1704071;82;21621;-82
2022/05/11 04:11:51;;;;;;;14.18;8.05;;;;;;;20.90;48.22;101103.56;1699284;83;21056;-83
2022/05/11 04:14:17;;;;;;;15.32;10.55;;;;;;;20.90;48.20;101103.56;1714374;82;21703;-82
2022/05/11 04:16:44;;;;;;;12.98;9.95;;;;;;;20.90;48.13;101109.09;1696412;83;21020;-83
2022/05/11 04:19:10;;;;;;;13.58;10.00;;;;;;;20.91;48.10;101108.53;1712396;82;21091;-80
2022/05/11 04:21:36;;;;;;;13.72;8.53;;;;;;;20.91;48.03;101116.83;1725575;82;21022;-83
2022/05/11 04:24:03;;;;;;;10.98;7.05;;;;;;;20.90;48.01;101114.63;1708350;84;21049;-83
2022/05/11 04:26:32;;;;;;;11.05;7.00;;;;;;;20.91;48.10;101114.88;1707925;82;21937;-85
2022/05/11 04:28:58;;;;;;;9.85;5.97;;;;;;;20.91;48.17;101115.45;1708859;83;21499;-84
2022/05/11 04:31:24;;;;;;;10.35;6.17;;;;;;;20.90;48.18;101107.70;1723589;81;21076;-84
2022/05/11 04:33:51;;;;;;;10.00;6.00;;;;;;;20.90;48.18;101109.09;1709227;82;21016;-82
2022/05/11 04:36:17;;;;;;;10.18;5.70;;;;;;;20.90;48.22;101112.42;1727983;80;21670;-82
2022/05/11 04:38:43;;;;;;;14.73;6.47;;;;;;;20.89;48.20;101116.30;1724487;81;23459;-82
2022/05/11 04:41:10;;;;;;;13.35;6.85;;;;;;;20.88;48.23;101109.13;1710782;83;21146;-83
2022/05/11 04:43:36;;;;;;;18.87;6.60;;;;;;;20.86;48.30;101116.38;1734956;81;21064;-81
2022/05/11 04:46:02;;;;;;;19.30;6.83;;;;;;;20.85;48.32;101113.35;1704173;81;21105;-80
2022/05/11 04:48:29;;;;;;;16.07;6.47;;;;;;;20.85;48.38;101118.06;1732884;81;21043;-81
2022/05/11 04:51:02;;;;;;;11.88;6.90;;;;;;;20.84;48.43;101113.09;1723914;81;21134;-78
2022/05/11 04:53:28;;;;;;;14.00;6.90;;;;;;;20.84;48.47;101122.77;1727258;81;21077;-81
2022/05/11 04:56:01;;;;;;;18.25;7.20;;;;;;;20.84;48.50;101118.63;1724858;81;21107;-81
2022/05/11 04:58:31;;;;;;;22.85;6.90;;;;;;;20.85;48.58;101132.70;1735187;80;21838;-81
2022/05/11 05:01:05;;;;;;;19.17;7.03;;;;;;;20.86;48.58;101130.77;1726923;80;21547;-79
2022/05/11 05:03:29;;;;;;;19.90;7.03;;;;;;;20.87;48.68;101134.61;1744302;80;22615;-80
2022/05/11 05:05:55;;;;;;;16.62;6.95;;;;;;;20.88;48.73;101127.93;1727099;81;21143;-83
2022/05/11 05:08:23;;;;;;;15.32;5.75;;;;;;;20.87;48.67;101137.38;1745812;80;21075;-84
2022/05/11 05:10:49;;;;;;;23.80;7.78;;;;;;;20.86;48.65;101134.35;1723104;80;21186;-81
2022/05/11 05:13:16;;;;;;;24.10;9.20;;;;;;;20.83;48.67;101128.07;1728043;80;21653;-81
2022/05/11 05:15:43;;;;;;;48.25;10.45;;;;;;;20.83;48.70;101126.69;1706387;80;21301;-83
2022/05/11 05:18:09;;;;;;;51.15;10.72;;;;;;;20.83;48.70;101123.92;1728962;81;21638;-83
2022/05/11 05:20:37;;;;;;;48.65;9.65;;;;;;;20.84;48.68;101133.01;1718683;81;21044;-82
2022/05/11 05:23:04;;;;;;;37.58;8.23;;;;;;;20.86;48.65;101132.15;1720395;80;21084;-81
2022/05/11 05:25:30;;;;;;;24.85;8.40;;;;;;;20.86;48.61;101121.09;1729925;80;21080;-80
2022/05/11 05:31:04;;;;;;;30.25;9.50;;;;;;;20.88;48.60;101125.73;1717232;81;21622;-81
2022/05/11 05:33:13;;;;;;;24.18;7.83;;;;;;;20.89;48.57;101110.77;1726217;80;21591;-81
2022/05/11 05:35:39;;;;;;;22.77;8.95;;;;;;;20.88;48.56;101115.48;1728948;80;21368;-83
2022/05/11 05:38:06;;;;;;;25.35;9.75;;;;;;;20.88;48.58;101115.48;1684624;80;21115;-80
2022/05/11 05:40:32;;;;;;;25.68;9.13;;;;;;;20.89;48.59;101114.92;1736124;80;22036;-81
2022/05/11 05:42:58;;;;;;;18.00;8.30;;;;;;;20.90;48.57;101117.95;1702108;82;21107;-79
2022/05/11 05:45:25;;;;;;;25.35;9.15;;;;;;;20.89;48.57;101118.51;1744163;81;21114;-86
2022/05/11 05:47:51;;;;;;;21.90;7.40;;;;;;;20.88;48.56;101121.02;1716466;80;21286;-83
2022/05/11 05:50:18;;;;;;;26.65;8.43;;;;;;;20.88;48.56;101123.78;1738438;80;21092;-84
2022/05/11 05:52:46;;;;;;;16.97;7.25;;;;;;;20.87;48.56;101127.70;1748459;80;21086;-79
2022/05/11 05:55:14;;;;;;;31.68;8.30;;;;;;;20.85;48.60;101135.47;1730010;81;21359;-86
2022/05/11 05:57:40;;;;;;;21.12;7.92;;;;;;;20.85;48.65;101145.16;1723141;80;21094;-77
2022/05/11 06:00:14;;;;;;;17.73;6.85;;;;;;;20.85;48.72;101142.39;1731734;80;21054;-82
2022/05/11 06:02:41;;;;;;;32.63;8.20;;;;;;;20.85;48.81;101156.22;1730575;80;21153;-78
2022/05/11 06:05:08;;;;;;;23.77;7.67;;;;;;;20.85;48.90;101156.78;1727361;80;21111;-81
2022/05/11 06:07:34;;;;;;;33.83;9.70;;;;;;;20.86;49.03;101162.57;1737564;80;21056;-81
2022/05/11 06:10:01;;;;;;;28.07;7.75;;;;;;;20.88;49.24;101158.91;1734559;80;21155;-82
2022/05/11 06:12:27;;;;;;;16.42;7.37;;;;;;;20.88;49.44;101161.12;1726617;81;21060;-80
2022/05/11 06:14:54;;;;;;;21.25;6.75;;;;;;;20.89;49.50;101164.14;1732377;80;21110;-81
2022/05/11 06:17:23;;;;;;;17.87;6.20;;;;;;;20.91;49.47;101159.13;1724912;81;21027;-83
2022/05/11 06:19:52;;;;;;;21.68;7.22;;;;;;;20.93;49.42;101162.95;1724318;81;21681;-85
2022/05/11 06:22:19;;;;;;;21.00;7.12;;;;;;;20.95;49.40;101163.48;1757131;79;20952;-79
2022/05/11 06:24:45;;;;;;;18.37;7.53;;;;;;;20.97;49.43;101159.25;1725691;80;21372;-84
2022/05/11 06:27:17;;;;;;;14.65;6.97;;;;;;;20.97;49.48;101162.02;1743039;80;20914;-83
2022/05/11 06:29:53;;;;;;;24.77;7.17;;;;;;;21.00;49.50;101159.77;1756775;80;21003;-83
2022/05/11 06:32:23;;;;;;;12.88;7.53;;;;;;;21.01;49.46;101156.68;1730889;80;21040;-80
2022/05/11 06:34:51;;;;;;;19.93;7.97;;;;;;;21.03;49.44;101156.38;1748474;80;21111;-80
2022/05/11 06:37:18;;;;;;;20.65;8.28;;;;;;;21.04;49.47;101156.64;1751319;80;21478;-80
2022/05/11 06:39:44;;;;;;;22.02;7.85;;;;;;;21.03;49.54;101165.50;1754541;80;21701;-81
2022/05/11 06:42:21;;;;;;;19.32;7.70;;;;;;;21.03;49.52;101163.30;1743783;80;21535;-83
2022/05/11 06:44:49;;;;;;;17.27;7.95;;;;;;;21.03;49.53;101161.91;1709981;80;21131;-86
2022/05/11 06:47:23;;;;;;;23.85;8.05;;;;;;;21.04;49.55;101162.17;1743470;80;21056;-85
2022/05/11 06:49:48;;;;;;;22.13;7.90;;;;;;;21.03;49.53;101157.76;1740469;80;21912;-83
2022/05/11 06:52:17;;;;;;;19.37;7.65;;;;;;;21.03;49.63;101156.38;1743637;80;21668;-85
2022/05/11 07:00:20;;;;;;;24.85;7.47;;;;;;;21.04;49.95;101158.84;1740962;80;21059;-81
2022/05/11 07:02:46;;;;;;;19.35;7.60;;;;;;;21.05;50.15;101157.69;1704728;82;21064;-84
2022/05/11 07:05:13;;;;;;;30.72;8.30;;;;;;;21.08;50.29;101156.27;1747115;80;21142;-83
2022/05/11 07:07:39;;;;;;;43.80;8.38;;;;;;;21.10;50.46;101155.37;1745163;80;21083;-80
2022/05/11 07:10:06;;;;;;;34.90;9.25;;;;;;;21.11;50.48;101159.78;1738460;80;21044;-82
2022/05/11 07:12:35;;;;;;;25.80;7.83;;;;;;;21.13;50.49;101156.19;1734832;80;21615;-82
2022/05/11 07:15:04;;;;;;;17.70;6.70;;;;;;;21.13;50.49;101144.52;1738343;80;21767;-83
2022/05/11 07:17:34;;;;;;;29.15;8.48;;;;;;;21.15;50.47;101142.84;1704028;80;21286;-82
2022/05/11 07:20:05;;;;;;;23.67;8.28;;;;;;;21.14;50.49;101142.02;1743463;80;21335;-85
2022/05/11 07:22:31;;;;;;;28.47;10.00;;;;;;;21.15;50.49;101142.28;1739965;80;21079;-83
2022/05/11 07:24:58;;;;;;;23.52;9.18;;;;;;;21.17;50.53;101149.72;1754345;80;21641;-83
2022/05/11 07:27:24;;;;;;;21.12;9.68;;;;;;;21.17;50.54;101151.09;1737029;80;21066;-82
2022/05/11 07:29:51;;;;;;;28.12;10.30;;;;;;;21.17;50.56;101151.09;1736681;80;21107;-83
2022/05/11 07:32:18;;;;;;;22.55;9.98;;;;;;;21.18;50.59;101157.42;1740035;80;22592;-84
2022/05/11 07:34:44;;;;;;;25.48;9.60;;;;;;;21.18;50.57;101160.19;1722934;81;21019;-81
2022/05/11 07:37:24;;;;;;;23.50;9.20;;;;;;;21.18;50.59;101156.04;1725139;81;21146;-82
2022/05/11 07:39:52;;;;;;;22.32;9.33;;;;;;;21.18;50.56;101152.70;1725453;82;21046;-86
2022/05/11 07:42:19;;;;;;;27.22;10.35;;;;;;;21.18;50.54;101157.42;1728263;81;21418;-83
2022/05/11 07:44:45;;;;;;;18.90;9.90;;;;;;;21.19;50.55;101148.00;1726878;81;21605;-83
2022/05/11 07:47:11;;;;;;;23.67;11.65;;;;;;;21.20;50.53;101153.80;1714708;82;21562;-83
2022/05/11 07:49:39;;;;;;;25.12;10.35;;;;;;;21.20;50.57;101151.84;1737018;80;21035;-89
2022/05/11 07:52:07;;;;;;;50.78;10.58;;;;;;;21.20;50.59;101153.80;1734739;81;21015;-82
2022/05/11 07:54:33;;;;;;;42.27;11.53;;;;;;;21.21;50.67;101154.05;1724130;81;21151;-86
2022/05/11 07:59:59;;;;;;;38.40;10.50;;;;;;;21.24;51.08;101152.85;1724923;81;21403;-86
2022/05/11 08:02:31;;;;;;;39.50;9.80;;;;;;;21.27;51.24;101150.83;1748426;81;21186;-87
2022/05/11 08:05:01;;;;;;;34.25;10.40;;;;;;;21.30;51.45;101152.97;1734420;80;21577;-86
2022/05/11 08:07:39;;;;;;;25.02;10.28;;;;;;;21.32;51.54;101157.63;1724898;81;21082;-84
2022/05/11 08:10:07;;;;;;;40.83;10.80;;;;;;;21.32;51.61;101156.25;1699949;82;21113;-88
2022/05/11 08:12:33;;;;;;;32.80;10.95;;;;;;;21.32;51.70;101152.66;1738384;80;21061;-87
2022/05/11 08:15:00;;;;;;;29.27;10.20;;;;;;;21.32;51.71;101159.02;1740617;80;21063;-85
2022/05/11 08:17:31;;;;;;;42.00;10.65;;;;;;;21.32;51.76;101154.87;1742383;80;21057;-86
2022/05/11 08:19:59;;;;;;;26.62;10.05;;;;;;;21.33;51.85;101157.08;1742176;81;21307;-85
2022/05/11 08:22:26;;;;;;;27.62;9.83;;;;;;;21.34;51.83;101150.41;1735901;81;21889;-85
2022/05/11 08:24:54;;;;;;;30.60;11.03;;;;;;;21.34;51.82;101149.82;1737930;80;21056;-87
2022/05/11 08:27:23;;;;;;;29.80;10.53;;;;;;;21.35;51.80;101150.08;1731500;80;21044;-86
2022/05/11 08:35:21;;;;;;;32.17;11.60;;;;;;;21.38;51.76;101147.27;1726370;81;21531;-85
2022/05/11 08:37:48;;;;;;;28.85;11.73;;;;;;;21.38;51.70;101145.32;1701257;82;37888;-85
2022/05/11 08:40:35;;;;;;;42.30;12.82;;;;;;;21.37;51.74;101143.67;1730669;81;21053;-84
2022/05/11 08:43:02;;;;;;;34.10;11.97;;;;;;;21.37;51.76;101138.14;1728350;81;21108;-83
2022/05/11 08:45:54;;;;;;;36.25;12.58;;;;;;;21.37;51.86;101135.94;1724820;80;21123;-85
2022/05/11 08:48:40;;;;;;;36.15;12.07;;;;;;;21.36;51.87;101133.73;1732237;81;22072;-84
2022/05/11 08:51:09;;;;;;;33.80;12.10;;;;;;;21.35;51.97;101136.23;1731164;80;22242;-81
2022/05/11 08:53:39;;;;;;;34.43;12.82;;;;;;;21.36;52.15;101131.53;1723169;81;21077;-82
2022/05/11 08:56:12;;;;;;;30.75;11.97;;;;;;;21.35;52.20;101125.17;1710003;81;22335;-83
2022/05/11 08:58:52;;;;;;;31.42;11.18;;;;;;;21.36;52.20;101123.22;1734248;81;21422;-86
2022/05/11 09:01:31;;;;;;;24.90;10.80;;;;;;;21.36;52.20;101127.38;1733885;81;21709;-85
2022/05/11 09:03:54;;;;;;;29.82;10.95;;;;;;;21.36;52.21;101124.61;1731848;81;21082;-83
2022/05/11 09:06:30;;;;;;;36.23;11.03;;;;;;;21.34;52.17;101120.76;1705745;82;21583;-84
2022/05/11 09:09:00;;;;;;;20.68;9.75;;;;;;;21.36;52.13;101119.89;1677419;83;21649;-85
2022/05/11 09:11:52;;;;;;;30.68;10.20;;;;;;;21.36;52.11;101119.89;1675956;83;27063;-83
2022/05/11 09:14:23;;;;;;;28.92;10.25;;;;;;;21.37;52.10;101130.41;1665726;83;22658;-83
2022/05/11 09:16:50;;;;;;;22.17;10.48;;;;;;;21.36;52.10;101128.76;1673684;83;21094;-82
2022/05/11 09:19:21;;;;;;;26.33;10.20;;;;;;;21.35;52.09;101118.25;1630791;85;21092;-81
2022/05/11 09:22:07;;;;;;;25.88;9.75;;;;;;;21.36;52.10;101117.12;1678126;83;21081;-86
2022/05/11 09:24:46;;;;;;;22.70;9.28;;;;;;;21.35;52.07;101114.09;1625589;83;21126;-85
2022/05/11 09:27:27;;;;;;;28.70;10.05;;;;;;;21.35;52.00;101112.72;1682119;83;21800;-87
2022/05/11 09:30:16;;;;;;;22.42;9.63;;;;;;;21.35;51.96;101104.41;1678441;83;21057;-83
2022/05/11 09:32:44;;;;;;;22.30;8.85;;;;;;;21.36;52.00;101110.77;1677888;83;21091;-84
2022/05/11 09:35:22;;;;;;;27.65;9.10;;;;;;;21.36;51.99;101101.08;1713626;81;21045;-84
2022/05/11 09:38:11;;;;;;;29.00;9.38;;;;;;;21.35;52.02;101110.51;1714157;82;21041;-85
2022/05/11 09:41:01;;;;;;;26.30;8.80;;;;;;;21.34;51.97;101100.00;1698074;82;21197;-85
2022/05/11 09:43:46;;;;;;;26.35;9.13;;;;;;;21.34;51.97;101096.45;1713369;82;21307;-84
2022/05/11 09:46:22;;;;;;;22.90;7.83;;;;;;;21.34;51.91;101080.63;1709778;81;21033;-87
2022/05/11 09:49:17;;;;;;;19.25;8.48;;;;;;;21.35;51.73;101084.22;1722324;82;21037;-83
2022/05/11 09:51:53;;;;;;;21.50;6.72;;;;;;;21.35;51.66;101078.12;1718278;82;21777;-85
2022/05/11 09:54:36;;;;;;;20.92;7.00;;;;;;;21.35;51.69;101078.12;1740460;80;21322;-82
2022/05/11 09:57:07;;;;;;;11.15;4.75;;;;;;;21.38;51.78;101076.69;1726528;81;21235;-86
2022/05/11 09:59:39;;;;;;;12.78;5.00;;;;;;;21.43;51.42;101078.73;1728359;80;21057;-85
2022/05/11 10:02:37;;;;;;;21.00;6.15;;;;;;;21.45;51.11;101072.89;1728152;80;21123;-83
2022/05/11 10:05:13;;;;;;;15.08;4.33;;;;;;;21.47;50.96;101070.64;1727843;81;21100;-82
2022/05/11 10:08:06;;;;;;;14.23;4.87;;;;;;;21.48;50.66;101070.87;1724964;80;21127;-85
2022/05/11 10:11:02;;;;;;;23.25;5.78;;;;;;;21.48;50.52;101066.72;1728848;81;21079;-84
2022/05/11 10:13:38;;;;;;;17.67;6.22;;;;;;;21.47;50.58;101063.72;1722171;80;21162;-82
2022/05/11 10:21:50;;;;;;;15.43;6.15;;;;;;;21.46;50.59;101058.48;1676789;80;21101;-83
2022/05/11 10:24:43;;;;;;;15.40;6.25;;;;;;;21.45;50.66;101052.70;1728140;80;21096;-85
2022/05/11 10:27:27;;;;;;;16.40;5.87;;;;;;;21.43;50.67;101055.20;1716367;81;21041;-85
2022/05/11 10:30:05;;;;;;;11.83;5.35;;;;;;;21.45;50.64;101057.67;1711907;82;21081;-83
2022/05/11 10:32:43;;;;;;;13.08;5.65;;;;;;;21.43;50.65;101048.84;1715459;82;21068;-84
2022/05/11 10:35:21;;;;;;;13.20;5.03;;;;;;;21.43;50.61;101056.36;1691919;81;21627;-84
2022/05/11 10:38:14;;;;;;;16.48;5.60;;;;;;;21.42;50.63;101061.08;1687659;83;21104;-82
2022/05/11 10:41:21;;;;;;;12.85;5.47;;;;;;;21.43;50.59;101056.36;1684997;83;21118;-82
2022/05/11 10:44:07;;;;;;;11.80;5.87;;;;;;;21.42;50.57;101058.31;1704611;81;21083;-85
2022/05/11 10:46:43;;;;;;;13.88;5.62;;;;;;;21.41;50.51;101053.34;1663834;82;21051;-83
2022/05/11 10:49:30;;;;;;;10.68;5.72;;;;;;;21.41;50.47;101051.13;1662204;83;21320;-83
2022/05/11 10:52:26;;;;;;;12.05;5.22;;;;;;;21.40;50.42;101033.70;1718038;81;21127;-78
2022/05/11 10:55:27;;;;;;;12.23;4.42;;;;;;;21.39;50.34;101034.02;1696282;82;21118;-84
2022/05/11 10:58:08;;;;;;;16.52;5.60;;;;;;;21.43;50.24;101035.61;1688255;83;21081;-83
2022/05/11 11:00:56;;;;;;;;;;;;;;;21.45;50.25;101034.14;1701913;82;21124;-82
2022/05/11 11:04:10;;;;;;;18.02;4.10;;;;;;;21.49;50.10;101032.37;1718722;81;21027;-80
2022/05/11 11:10:06;;;;;;;11.83;3.52;;;;;;;21.55;49.93;101026.13;1688353;83;21251;-82
2022/05/11 11:12:53;;;;;;;8.95;3.72;;;;;;;21.55;49.76;101033.87;1699673;82;21093;-85
2022/05/11 11:15:26;;;;;;;11.75;3.17;;;;;;;21.55;49.59;101022.80;1691671;82;21103;-82
2022/05/11 11:17:56;;;;;;;10.80;4.03;;;;;;;21.55;49.54;101022.80;1663083;84;21174;-82
2022/05/11 11:20:22;;;;;;;9.20;3.17;;;;;;;21.54;49.58;101023.93;1682529;83;21180;-82
2022/05/11 11:23:18;;;;;;;12.07;4.17;;;;;;;21.54;49.54;101014.80;1684659;83;21049;-83
2022/05/11 11:25:51;;;;;;;8.38;3.60;;;;;;;21.53;49.50;101013.98;1692097;83;21049;-83
2022/05/11 11:28:18;;;;;;;8.03;3.25;;;;;;;21.53;49.48;101009.83;1688387;82;21871;-80
2022/05/11 11:31:04;;;;;;;7.22;3.45;;;;;;;21.53;49.42;101018.14;1674105;84;21065;-81
2022/05/11 11:33:33;;;;;;;11.48;3.60;;;;;;;21.52;49.37;101013.73;1671666;84;21075;-82
2022/05/11 11:36:20;;;;;;;5.90;3.58;;;;;;;21.52;49.32;101005.42;1669563;84;21708;-80
2022/05/11 11:38:48;;;;;;;7.20;3.40;;;;;;;21.51;49.27;101019.04;1702748;82;21157;-81
2022/05/11 11:41:28;;;;;;;7.42;3.27;;;;;;;21.51;49.22;101011.30;1669472;83;21435;-80
2022/05/11 11:44:03;;;;;;;7.75;3.25;;;;;;;21.51;49.19;101021.81;1707942;82;21533;-79
2022/05/11 11:46:44;;;;;;;5.80;2.70;;;;;;;21.50;49.13;101020.73;1697628;82;21051;-81
2022/05/11 11:49:26;;;;;;;4.17;2.60;;;;;;;21.50;49.02;101017.40;1680154;83;21489;-81
2022/05/11 11:51:58;;;;;;;7.15;2.87;;;;;;;21.50;48.76;101018.78;1691814;83;21048;-83
2022/05/11 11:54:48;;;;;;;9.58;2.80;;;;;;;21.48;48.62;101022.42;1691476;82;21124;-83
2022/05/11 11:57:30;;;;;;;7.47;2.90;;;;;;;21.47;48.81;101018.05;1692627;82;22469;-82
2022/05/11 12:00:02;;;;;;;11.22;2.67;;;;;;;21.50;48.76;101017.40;1703821;82;21208;-80
2022/05/11 12:02:41;;;;;;;19.42;3.15;;;;;;;21.52;48.70;101016.50;1687826;83;21177;-80
2022/05/11 12:05:29;;;;;;;12.75;2.95;;;;;;;21.55;48.63;101007.58;1703742;81;21100;-81
2022/05/11 12:16:56;;;;;;;8.38;2.95;;;;;;;21.63;48.47;100988.80;1677378;84;21144;-85
2022/05/11 12:19:26;;;;;;;13.03;3.33;;;;;;;21.64;48.50;100987.63;1668078;83;21390;-88